Massillon, Ohio
Current Conditions -  °F | °C
As of 3:51 AM on Monday 20 Oct 2014 (Local Time) from KCAK Reporting Station
Broken Clouds Broken Clouds  
Wind Chill: 42°   Ceiling: 11000
Heat Index: 46°   Visibility: 10mi
Dew Point: 36°   Wind: 7mph
Humidity: 68%   Direction: 210°SSW
Pressure: 30.02"   Gusts: NA
Location:  40.79°N, 81.52°W
Report Text: KCAK 200751Z 21006KT 10SM BKN110 08/02 A3002 RMK AO2 SLP167 T00780022
Loading
Personal Weather Stations






























Interactive Weather Map
Tropical Storm Tracking
New forecast layout! Learn more

10-Day Weather Forecast

Advertisements
Track Severe Weather on mobile